Time;durP1;ratioP1;P1;durP2;ratioP2;P2;SDS_P1;SDS_P2;PMS_P1;PMS_P2;Temp;Humidity;BMP_temperature;BMP_pressure;BME280_temperature;BME280_humidity;BME280_pressure;Samples;Min_cycle;Max_cycle;Signal;HPM_P1;HPM_P2
2021/03/27 00:01:46;;;;;;;4.67;1.80;;;8.00;79.70;;;;;;5112253;28;20376;-69
2021/03/27 00:04:40;;;;;;;2.80;1.50;;;7.90;80.60;;;;;;5112533;28;20302;-69
2021/03/27 00:07:35;;;;;;;4.90;1.90;;;7.90;82.40;;;;;;5094681;28;20309;-70
2021/03/27 00:10:29;;;;;;;3.73;1.83;;;7.80;82.10;;;;;;5111588;28;20325;-69
2021/03/27 00:13:15;;;;;;;4.37;2.03;;;7.70;82.30;;;;;;5111589;28;20328;-69
2021/03/27 00:16:00;;;;;;;5.17;2.07;;;7.70;82.70;;;;;;5111959;28;20819;-70
2021/03/27 00:18:41;;;;;;;3.63;1.60;;;7.60;83.60;;;;;;5093758;28;20351;-70
2021/03/27 00:21:26;;;;;;;3.57;1.50;;;7.50;82.80;;;;;;5112104;28;20366;-70
2021/03/27 00:24:08;;;;;;;4.63;1.90;;;7.40;83.20;;;;;;5111110;28;20790;-70
2021/03/27 00:26:43;;;;;;;6.00;2.27;;;7.30;83.00;;;;;;5111700;28;20304;-69
2021/03/27 00:29:16;;;;;;;3.67;1.60;;;7.20;83.90;;;;;;5112007;28;20344;-69
2021/03/27 00:31:50;;;;;;;4.40;1.40;;;7.10;84.00;;;;;;5111348;28;20293;-69
2021/03/27 00:34:21;;;;;;;3.13;1.63;;;7.00;84.20;;;;;;5112233;28;20305;-69
2021/03/27 00:36:56;;;;;;;4.53;1.63;;;7.00;84.30;;;;;;5111610;28;20333;-69
2021/03/27 00:39:32;;;;;;;4.57;1.50;;;6.90;84.60;;;;;;5111867;28;20364;-69
2021/03/27 00:42:15;;;;;;;4.13;1.83;;;6.90;84.50;;;;;;5111690;28;20310;-69
2021/03/27 00:44:50;;;;;;;3.00;1.30;;;6.80;85.10;;;;;;5111252;28;20346;-70
2021/03/27 00:47:19;;;;;;;4.27;1.67;;;6.80;85.10;;;;;;5111693;28;20418;-69
2021/03/27 00:49:54;;;;;;;5.17;1.80;;;6.70;85.00;;;;;;5111296;28;20309;-69
2021/03/27 00:52:21;;;;;;;4.47;1.40;;;6.70;85.30;;;;;;5111379;28;20309;-69
2021/03/27 00:54:57;;;;;;;4.20;1.90;;;6.70;85.70;;;;;;5110970;28;20302;-69
2021/03/27 00:57:27;;;;;;;3.27;1.53;;;6.70;85.60;;;;;;5111946;28;20289;-69
2021/03/27 01:00:23;;;;;;;1.30;1.20;;;6.60;85.60;;;;;;5110480;28;20410;-70
2021/03/27 01:02:52;;;;;;;4.33;1.40;;;6.60;85.80;;;;;;5111131;28;20762;-69
2021/03/27 01:05:22;;;;;;;4.53;2.03;;;6.60;85.90;;;;;;5111365;28;20293;-69
2021/03/27 01:07:50;;;;;;;3.67;1.70;;;6.60;86.00;;;;;;5110776;28;20797;-69
2021/03/27 01:10:19;;;;;;;4.03;1.50;;;6.60;85.80;;;;;;5111638;28;20316;-69
2021/03/27 01:12:47;;;;;;;4.17;1.63;;;6.60;85.80;;;;;;5110375;28;20305;-69
2021/03/27 01:15:21;;;;;;;4.67;1.60;;;6.60;86.10;;;;;;5111648;28;20304;-69
2021/03/27 01:17:51;;;;;;;4.67;1.50;;;6.60;86.50;;;;;;5111059;28;20289;-70
2021/03/27 01:20:21;;;;;;;6.20;1.80;;;6.60;86.30;;;;;;5111021;28;20332;-69
2021/03/27 01:22:49;;;;;;;4.60;2.00;;;6.60;86.20;;;;;;5110806;28;20294;-69
2021/03/27 01:25:26;;;;;;;2.93;1.30;;;6.60;86.20;;;;;;5111589;28;20302;-69
2021/03/27 01:28:49;;;;;;;2.87;1.53;;;6.50;86.60;;;;;;5110338;28;20295;-69
2021/03/27 01:31:23;;;;;;;4.27;1.80;;;6.60;87.00;;;;;;5011041;28;20928;-69
2021/03/27 01:34:09;;;;;;;6.03;2.10;;;6.50;86.50;;;;;;5011745;28;20354;-69
2021/03/27 01:36:37;;;;;;;2.07;1.20;;;6.60;86.60;;;;;;5079719;28;20281;-69
2021/03/27 01:39:13;;;;;;;2.80;1.50;;;6.50;86.50;;;;;;5114923;28;20886;-69
2021/03/27 01:41:48;;;;;;;3.63;1.50;;;6.60;86.30;;;;;;5114208;28;20611;-69
2021/03/27 01:44:51;;;;;;;7.40;1.63;;;6.60;86.50;;;;;;5115118;28;20308;-69
2021/03/27 01:47:35;;;;;;;4.70;1.53;;;6.50;86.70;;;;;;5114721;28;20301;-70
2021/03/27 01:50:03;;;;;;;1.90;1.37;;;6.60;86.30;;;;;;5114619;28;20298;-69
2021/03/27 01:52:53;;;;;;;3.40;1.60;;;6.60;86.20;;;;;;5115142;28;20309;-69
2021/03/27 01:55:37;;;;;;;2.27;1.50;;;6.60;86.40;;;;;;5114578;28;20294;-69
2021/03/27 01:58:21;;;;;;;3.33;1.50;;;6.60;86.70;;;;;;5114413;28;20346;-69
2021/03/27 02:00:55;;;;;;;3.60;1.60;;;6.60;86.70;;;;;;5114541;28;20296;-70
2021/03/27 02:03:30;;;;;;;3.80;2.00;;;6.50;86.50;;;;;;5114223;28;20350;-69
2021/03/27 02:06:07;;;;;;;2.20;1.40;;;6.50;86.80;;;;;;5114032;28;20781;-69
2021/03/27 02:09:00;;;;;;;3.80;1.30;;;6.50;86.80;;;;;;5113910;28;20350;-69
2021/03/27 02:11:25;;;;;;;;;;;6.60;87.00;;;;;;5115147;28;20293;-69
2021/03/27 02:14:14;;;;;;;2.80;1.33;;;6.60;88.10;;;;;;5114089;28;20288;-70
2021/03/27 02:16:49;;;;;;;3.43;1.40;;;6.50;87.00;;;;;;5113853;28;20063;-69
2021/03/27 02:19:53;;;;;;;1.97;1.30;;;6.50;86.70;;;;;;5114263;28;20305;-69
2021/03/27 02:22:27;;;;;;;3.57;1.50;;;6.50;86.80;;;;;;5109419;28;20333;-69
2021/03/27 02:25:11;;;;;;;3.30;1.50;;;6.50;87.10;;;;;;5113611;28;20373;-69
2021/03/27 02:27:48;;;;;;;3.90;1.60;;;6.50;87.50;;;;;;5114035;28;20304;-69
2021/03/27 02:30:28;;;;;;;4.57;1.90;;;6.50;87.50;;;;;;5113955;28;20329;-69
2021/03/27 02:33:02;;;;;;;2.73;1.80;;;6.50;87.50;;;;;;5113336;28;20785;-69
2021/03/27 02:35:41;;;;;;;3.10;1.87;;;6.50;87.60;;;;;;5114254;28;20285;-69
2021/03/27 02:38:22;;;;;;;3.97;2.20;;;6.60;87.80;;;;;;5113110;28;20312;-69
2021/03/27 02:41:00;;;;;;;6.35;2.40;;;6.60;87.90;;;;;;5113311;28;20289;-69
2021/03/27 02:43:44;;;;;;;5.33;2.40;;;6.60;87.90;;;;;;5113985;28;20062;-69
2021/03/27 02:46:19;;;;;;;3.20;2.67;;;6.60;88.10;;;;;;5113600;28;20738;-69
2021/03/27 02:49:12;;;;;;;6.57;3.97;;;6.60;88.00;;;;;;5113634;28;20285;-69
2021/03/27 02:51:41;;;;;;;10.20;3.87;;;6.60;88.20;;;;;;5113154;28;20355;-69
2021/03/27 02:54:13;;;;;;;6.60;4.50;;;6.60;88.30;;;;;;5113270;28;20425;-69
2021/03/27 02:56:56;;;;;;;8.07;4.80;;;6.60;88.50;;;;;;5113370;28;20692;-70
2021/03/27 02:59:25;;;;;;;6.60;4.50;;;6.60;88.70;;;;;;5113313;28;20397;-69
2021/03/27 03:01:55;;;;;;;9.33;4.97;;;6.60;88.60;;;;;;5113217;28;20298;-69
2021/03/27 03:04:33;;;;;;;10.40;5.03;;;6.60;88.60;;;;;;5113922;28;20338;-69
2021/03/27 03:07:08;;;;;;;6.33;5.47;;;6.60;89.10;;;;;;5112857;28;20297;-69
2021/03/27 03:09:51;;;;;;;8.67;5.50;;;6.60;88.60;;;;;;5113382;28;20659;-69
2021/03/27 03:12:32;;;;;;;8.33;6.13;;;6.60;88.60;;;;;;5112964;28;20324;-69
2021/03/27 03:15:30;;;;;;;8.32;5.82;;;6.60;88.50;;;;;;5113051;28;20290;-70
2021/03/27 03:17:58;;;;;;;10.33;6.33;;;6.60;88.60;;;;;;5090445;28;20051;-69
2021/03/27 03:20:56;;;;;;;9.40;6.47;;;6.70;88.60;;;;;;5112708;28;20386;-69
2021/03/27 03:23:54;;;;;;;9.43;7.23;;;6.60;89.10;;;;;;5113242;28;20289;-69
2021/03/27 03:26:36;;;;;;;10.50;7.80;;;6.60;88.70;;;;;;5112618;28;20750;-70
2021/03/27 03:29:17;;;;;;;11.90;8.43;;;6.60;88.90;;;;;;5112805;28;20297;-69
2021/03/27 03:32:21;;;;;;;12.90;8.57;;;6.60;88.60;;;;;;5112759;28;20304;-69
2021/03/27 03:35:14;;;;;;;9.60;7.90;;;6.60;88.80;;;;;;5097971;28;20043;-69
2021/03/27 03:38:06;;;;;;;11.83;8.73;;;6.60;88.70;;;;;;5112776;28;20297;-69
2021/03/27 03:40:55;;;;;;;10.32;7.95;;;6.60;89.00;;;;;;5112128;28;20292;-70
2021/03/27 03:43:36;;;;;;;14.77;8.97;;;6.60;88.70;;;;;;5112536;28;20063;-70
2021/03/27 03:46:36;;;;;;;11.93;8.98;;;6.60;88.30;;;;;;5112659;28;20376;-68
2021/03/27 03:49:23;;;;;;;12.47;9.37;;;6.60;88.70;;;;;;5111686;28;20055;-69
2021/03/27 03:52:02;;;;;;;10.83;8.33;;;6.60;88.80;;;;;;5112156;28;20298;-70
2021/03/27 03:54:49;;;;;;;13.47;8.17;;;6.60;88.50;;;;;;5111532;28;20297;-70
2021/03/27 03:57:23;;;;;;;13.07;8.57;;;6.60;88.30;;;;;;5112397;28;20297;-69
2021/03/27 04:00:07;;;;;;;14.43;9.20;;;6.60;88.60;;;;;;5112237;28;20282;-69
2021/03/27 04:02:40;;;;;;;10.83;8.60;;;6.60;88.60;;;;;;5111686;28;20388;-70
2021/03/27 04:05:37;;;;;;;10.27;7.97;;;6.50;88.80;;;;;;5112236;28;20387;-70
2021/03/27 04:08:15;;;;;;;11.73;7.83;;;6.60;88.80;;;;;;5111818;28;20286;-70
2021/03/27 04:10:41;;;;;;;11.50;7.80;;;6.50;88.60;;;;;;5112075;28;20293;-69
2021/03/27 04:13:14;;;;;;;12.27;8.93;;;6.50;88.50;;;;;;5112095;28;20313;-69
2021/03/27 04:15:54;;;;;;;11.50;7.77;;;6.50;88.60;;;;;;5111593;28;20305;-69
2021/03/27 04:19:01;;;;;;;12.70;7.97;;;6.50;88.60;;;;;;5112291;28;20373;-69
2021/03/27 04:21:32;;;;;;;15.40;7.53;;;6.40;89.00;;;;;;5098470;28;20805;-70
2021/03/27 04:24:16;;;;;;;14.00;8.03;;;6.40;88.40;;;;;;5111224;28;20673;-70
2021/03/27 04:26:54;;;;;;;12.07;7.33;;;6.30;88.50;;;;;;5112071;28;20683;-68
2021/03/27 04:29:42;;;;;;;12.40;6.07;;;6.30;88.50;;;;;;5111662;28;20662;-69
2021/03/27 04:32:27;;;;;;;14.67;6.97;;;6.30;88.80;;;;;;5111677;28;20308;-69
2021/03/27 04:35:15;;;;;;;12.83;6.50;;;6.20;88.70;;;;;;5111603;28;20674;-69
2021/03/27 04:37:48;;;;;;;14.07;6.63;;;6.20;88.80;;;;;;5111127;28;20293;-69
2021/03/27 04:40:28;;;;;;;14.60;5.90;;;6.10;88.60;;;;;;5112019;28;20438;-69
2021/03/27 04:43:21;;;;;;;11.63;6.03;;;6.00;88.70;;;;;;5108989;28;20352;-69
2021/03/27 04:46:05;;;;;;;12.90;5.93;;;6.10;88.70;;;;;;5111290;28;20293;-69
2021/03/27 04:49:12;;;;;;;12.07;6.00;;;6.00;88.60;;;;;;5112001;28;20296;-69
2021/03/27 04:51:57;;;;;;;14.37;5.03;;;6.00;88.90;;;;;;5061879;28;20303;-69
2021/03/27 04:54:50;;;;;;;13.40;4.70;;;5.90;88.40;;;;;;5112213;28;20628;-69
2021/03/27 04:57:33;;;;;;;12.30;4.40;;;5.90;88.50;;;;;;5111266;28;20696;-69
2021/03/27 05:00:06;;;;;;;10.20;5.30;;;5.90;88.50;;;;;;5111456;28;20293;-69
2021/03/27 05:02:51;;;;;;;14.30;4.77;;;5.90;88.20;;;;;;5111590;28;20297;-69
2021/03/27 05:05:54;;;;;;;14.77;4.70;;;6.00;88.30;;;;;;5113645;28;20297;-69
2021/03/27 05:08:44;;;;;;;11.83;4.10;;;5.90;88.30;;;;;;5116140;28;20294;-69
2021/03/27 05:11:23;;;;;;;12.70;3.63;;;5.90;88.20;;;;;;5115574;28;20320;-69
2021/03/27 05:13:56;;;;;;;13.73;4.50;;;6.00;87.90;;;;;;5114895;28;20434;-69
2021/03/27 05:16:24;;;;;;;10.30;3.57;;;6.00;87.80;;;;;;5115696;28;20351;-69
2021/03/27 05:19:05;;;;;;;11.23;3.07;;;6.10;87.70;;;;;;5114721;28;20676;-69
2021/03/27 05:21:37;;;;;;;9.35;3.17;;;6.10;87.70;;;;;;5115616;28;20300;-69
2021/03/27 05:24:18;;;;;;;;;;;6.10;87.30;;;;;;5115771;28;20079;-69
2021/03/27 05:27:13;;;;;;;3.10;1.63;;;6.20;87.20;;;;;;5114465;28;19928;-68
2021/03/27 05:29:53;;;;;;;3.50;1.83;;;6.10;86.50;;;;;;5115455;28;20342;-69
2021/03/27 05:32:45;;;;;;;4.20;1.70;;;6.00;86.30;;;;;;5115150;28;20358;-69
2021/03/27 05:35:27;;;;;;;5.43;2.30;;;5.90;86.50;;;;;;5115134;28;20300;-69
2021/03/27 05:38:10;;;;;;;4.45;1.95;;;5.80;86.70;;;;;;5114895;28;20308;-69
2021/03/27 05:41:00;;;;;;;5.73;1.90;;;5.80;86.90;;;;;;5114325;28;20047;-69
2021/03/27 05:43:51;;;;;;;4.97;2.33;;;5.80;87.00;;;;;;5114756;28;20380;-69
2021/03/27 05:46:54;;;;;;;6.23;2.57;;;5.80;87.10;;;;;;5115305;28;20293;-69
2021/03/27 05:50:14;;;;;;;6.33;2.80;;;5.80;87.40;;;;;;5114809;28;20304;-69
2021/03/27 05:52:59;;;;;;;6.73;3.50;;;5.80;87.30;;;;;;5012012;28;20343;-69
2021/03/27 05:55:39;;;;;;;6.13;3.77;;;5.80;87.40;;;;;;5106743;28;20858;-69
2021/03/27 05:58:26;;;;;;;6.80;3.13;;;5.80;87.30;;;;;;5114622;28;20730;-69
2021/03/27 06:01:07;;;;;;;7.03;3.50;;;5.80;87.50;;;;;;5113890;28;20382;-69
2021/03/27 06:04:03;;;;;;;6.90;2.97;;;5.90;87.70;;;;;;5114303;28;20348;-70
2021/03/27 06:07:02;;;;;;;9.97;4.23;;;5.90;87.80;;;;;;5114753;28;20294;-68
2021/03/27 06:09:33;;;;;;;7.97;3.60;;;5.90;87.80;;;;;;5113800;28;20357;-68
2021/03/27 06:12:24;;;;;;;8.07;3.80;;;6.00;87.90;;;;;;5114173;28;20671;-69
2021/03/27 06:15:14;;;;;;;9.33;2.97;;;6.00;87.90;;;;;;5113379;28;20073;-68
2021/03/27 06:18:18;;;;;;;8.77;3.40;;;6.10;88.00;;;;;;5113174;28;20841;-69
2021/03/27 06:21:12;;;;;;;8.33;3.77;;;6.10;88.00;;;;;;5114069;28;20297;-69
2021/03/27 06:23:55;;;;;;;7.50;3.40;;;6.20;87.90;;;;;;5113633;28;20761;-69
2021/03/27 06:26:49;;;;;;;9.40;4.50;;;6.20;87.90;;;;;;5114424;28;20627;-69
2021/03/27 06:29:52;;;;;;;9.70;3.33;;;6.20;88.10;;;;;;5113722;28;20305;-69
2021/03/27 06:32:43;;;;;;;8.13;3.37;;;6.20;88.10;;;;;;5114265;28;20305;-69
2021/03/27 06:35:42;;;;;;;8.83;2.73;;;6.20;88.00;;;;;;5113858;28;20301;-69
2021/03/27 06:38:28;;;;;;;9.00;2.77;;;6.30;87.80;;;;;;5112398;28;20298;-68
2021/03/27 06:41:00;;;;;;;7.47;3.27;;;6.30;87.50;;;;;;5109173;28;20297;-68
2021/03/27 06:44:05;;;;;;;7.87;2.73;;;6.30;87.30;;;;;;5100887;28;20298;-69
2021/03/27 06:47:09;;;;;;;9.00;2.53;;;6.30;87.50;;;;;;5104102;28;20624;-68
2021/03/27 06:49:51;;;;;;;9.10;3.00;;;6.30;87.20;;;;;;5104201;28;20650;-69
2021/03/27 06:52:38;;;;;;;6.83;2.67;;;6.40;87.10;;;;;;5104058;28;20297;-69
2021/03/27 06:55:32;;;;;;;6.60;2.33;;;6.40;87.00;;;;;;5102909;28;20748;-69
2021/03/27 06:58:16;;;;;;;10.73;2.90;;;6.50;87.10;;;;;;5103187;28;20391;-68
2021/03/27 07:01:20;;;;;;;7.07;2.63;;;6.60;86.80;;;;;;5106882;28;20298;-69
2021/03/27 07:04:04;;;;;;;13.30;2.90;;;6.60;86.10;;;;;;5102650;28;20353;-70
2021/03/27 07:06:54;;;;;;;10.13;2.40;;;6.70;86.10;;;;;;5104007;28;20502;-70
2021/03/27 07:09:57;;;;;;;11.73;2.93;;;6.90;85.70;;;;;;5102888;28;20309;-69
2021/03/27 07:12:53;;;;;;;11.43;3.17;;;6.90;85.10;;;;;;5102406;28;20377;-69
2021/03/27 07:15:18;;;;;;;9.40;3.00;;;7.10;84.90;;;;;;5064663;28;20298;-67
2021/03/27 07:18:13;;;;;;;8.07;2.30;;;7.30;83.90;;;;;;5106665;28;20298;-68
2021/03/27 07:21:08;;;;;;;8.20;2.23;;;7.30;82.70;;;;;;5103267;28;20047;-69
2021/03/27 07:24:01;;;;;;;10.97;3.20;;;7.30;82.40;;;;;;5102640;28;20293;-69
2021/03/27 07:26:45;;;;;;;11.97;3.47;;;7.30;82.00;;;;;;5093442;28;20330;-69
2021/03/27 07:29:42;;;;;;;11.07;2.70;;;7.20;81.70;;;;;;5110993;28;20304;-69
2021/03/27 07:32:31;;;;;;;19.00;3.90;;;7.10;81.30;;;;;;5112225;28;20302;-69
2021/03/27 07:35:35;;;;;;;10.27;2.77;;;7.20;82.30;;;;;;5112362;28;20795;-68
2021/03/27 07:38:19;;;;;;;14.50;2.93;;;7.20;80.10;;;;;;5112398;28;20298;-68
2021/03/27 07:41:01;;;;;;;16.57;3.93;;;7.40;80.50;;;;;;5111561;28;20290;-69
2021/03/27 07:44:04;;;;;;;17.45;3.63;;;7.50;80.20;;;;;;5110358;28;20800;-69
2021/03/27 07:47:20;;;;;;;16.40;3.50;;;7.60;78.00;;;;;;5104297;28;20067;-68
2021/03/27 07:50:10;;;;;;;19.37;4.60;;;7.80;77.60;;;;;;5091873;28;20306;-70
2021/03/27 07:52:57;;;;;;;17.83;3.57;;;7.80;78.00;;;;;;5091736;28;20551;-70
2021/03/27 07:55:54;;;;;;;15.40;3.10;;;7.80;77.40;;;;;;5092076;28;20339;-69
2021/03/27 07:58:23;;;;;;;14.37;3.43;;;7.80;77.50;;;;;;5092042;28;20774;-69
2021/03/27 08:01:13;;;;;;;15.47;3.23;;;7.80;77.40;;;;;;5090706;28;20290;-69
2021/03/27 08:04:16;;;;;;;12.73;3.57;;;7.70;77.00;;;;;;5091863;28;20330;-68
2021/03/27 08:07:02;;;;;;;13.27;2.77;;;7.60;76.40;;;;;;5091886;28;20302;-69
2021/03/27 08:10:01;;;;;;;13.33;3.30;;;7.40;76.10;;;;;;5091742;28;20294;-68
2021/03/27 08:12:54;;;;;;;15.57;3.03;;;7.40;76.10;;;;;;5092027;28;20786;-69
2021/03/27 08:15:47;;;;;;;16.30;3.07;;;7.40;75.60;;;;;;5091056;28;20310;-68
2021/03/27 08:18:34;;;;;;;15.50;3.47;;;7.30;75.50;;;;;;5091880;28;20294;-68
2021/03/27 08:21:28;;;;;;;14.93;3.20;;;7.30;75.40;;;;;;5091402;28;20405;-68
2021/03/27 08:24:12;;;;;;;15.23;3.03;;;7.20;76.00;;;;;;5096094;28;20658;-69
2021/03/27 08:27:15;;;;;;;13.63;2.53;;;7.40;76.00;;;;;;5097054;28;20302;-69
2021/03/27 08:29:44;;;;;;;18.63;3.73;;;7.60;74.70;;;;;;5090414;28;20309;-69
2021/03/27 08:32:34;;;;;;;21.73;3.57;;;7.70;74.40;;;;;;5091364;28;20294;-68
2021/03/27 08:35:36;;;;;;;12.80;2.60;;;7.90;74.70;;;;;;5091208;28;20790;-70
2021/03/27 08:38:16;;;;;;;23.08;3.85;;;8.30;73.10;;;;;;5091030;28;20347;-71
2021/03/27 08:41:05;;;;;;;17.93;2.90;;;8.60;72.80;;;;;;5090733;28;20553;-70
2021/03/27 08:43:52;;;;;;;15.93;2.73;;;8.80;71.30;;;;;;5090663;28;20825;-69
2021/03/27 08:46:40;;;;;;;15.47;3.53;;;9.00;70.40;;;;;;5091437;28;20314;-68
2021/03/27 08:49:32;;;;;;;18.13;3.87;;;9.20;69.50;;;;;;5090916;28;20607;-69
2021/03/27 08:52:21;;;;;;;13.80;3.22;;;9.10;68.30;;;;;;5091119;28;20352;-69
2021/03/27 08:55:38;;;;;;;8.77;1.93;;;8.80;68.50;;;;;;5090959;28;20135;-70
2021/03/27 08:58:13;;;;;;;11.07;2.07;;;8.30;69.90;;;;;;5064193;28;20293;-69
2021/03/27 09:01:07;;;;;;;7.60;2.20;;;7.90;71.70;;;;;;5091196;28;20294;-69
2021/03/27 09:04:01;;;;;;;8.00;2.40;;;7.60;72.20;;;;;;5090508;28;20315;-69
2021/03/27 09:06:40;;;;;;;10.73;2.70;;;7.40;72.60;;;;;;5091359;28;20294;-69
2021/03/27 09:09:30;;;;;;;12.20;2.50;;;7.40;73.40;;;;;;5090917;28;20722;-70
2021/03/27 09:12:13;;;;;;;12.53;3.47;;;7.70;73.30;;;;;;5090002;28;20294;-68
2021/03/27 09:15:02;;;;;;;11.10;2.60;;;7.90;72.90;;;;;;5091027;28;20299;-70
2021/03/27 09:17:42;;;;;;;12.30;2.50;;;7.90;72.50;;;;;;5090881;28;20301;-69
2021/03/27 09:20:24;;;;;;;9.43;2.30;;;7.80;72.40;;;;;;5090647;28;20311;-69
2021/03/27 09:22:57;;;;;;;14.63;2.70;;;7.60;71.90;;;;;;5090873;28;20290;-70
2021/03/27 09:25:46;;;;;;;11.57;2.37;;;7.80;72.90;;;;;;5090582;28;20131;-68
2021/03/27 09:28:24;;;;;;;14.97;2.60;;;8.00;72.00;;;;;;5090823;28;20302;-69
2021/03/27 09:31:06;;;;;;;9.93;2.10;;;8.40;71.30;;;;;;5090757;28;20291;-70
2021/03/27 09:33:39;;;;;;;7.67;2.10;;;8.80;70.50;;;;;;5089716;28;20318;-68
2021/03/27 09:36:21;;;;;;;8.93;2.23;;;9.00;69.30;;;;;;5090695;28;20732;-69
2021/03/27 09:38:49;;;;;;;6.78;2.65;;;9.20;65.80;;;;;;5089689;28;20302;-69
2021/03/27 09:41:52;;;;;;;10.10;2.00;;;9.10;65.40;;;;;;5090781;28;20055;-69
2021/03/27 09:44:27;;;;;;;7.13;1.93;;;9.00;63.20;;;;;;5090682;28;20373;-68
2021/03/27 09:47:02;;;;;;;12.20;2.37;;;8.90;66.30;;;;;;5089590;28;20295;-68
2021/03/27 09:49:37;;;;;;;9.37;2.57;;;8.80;66.10;;;;;;5091064;28;20302;-68
2021/03/27 09:52:24;;;;;;;8.90;2.40;;;8.60;66.60;;;;;;5092214;28;20767;-70
2021/03/27 09:55:23;;;;;;;11.07;2.53;;;8.50;66.90;;;;;;5093035;28;20298;-69
2021/03/27 09:58:13;;;;;;;10.60;2.70;;;8.40;66.20;;;;;;5093843;28;20302;-69
2021/03/27 10:00:59;;;;;;;13.30;2.77;;;8.30;66.80;;;;;;5093440;28;20778;-68
2021/03/27 10:03:35;;;;;;;8.33;2.27;;;8.20;67.20;;;;;;5094579;28;20294;-69
2021/03/27 10:06:31;;;;;;;11.87;2.90;;;8.00;67.80;;;;;;5094006;28;20301;-69
2021/03/27 10:09:14;;;;;;;9.87;2.30;;;7.80;67.30;;;;;;5093447;28;20382;-68
2021/03/27 10:11:41;;;;;;;11.77;2.23;;;7.70;66.60;;;;;;5094059;28;20302;-69
2021/03/27 10:14:21;;;;;;;18.57;3.13;;;7.70;67.30;;;;;;5093046;28;20318;-69
2021/03/27 10:17:04;;;;;;;12.30;2.70;;;7.70;66.90;;;;;;5093657;28;20317;-70
2021/03/27 10:19:49;;;;;;;8.43;2.40;;;7.80;65.80;;;;;;5094084;28;20298;-68
2021/03/27 10:22:28;;;;;;;14.53;2.70;;;7.90;65.80;;;;;;5093028;28;20327;-68
2021/03/27 10:24:59;;;;;;;10.73;2.80;;;8.00;65.00;;;;;;5093175;28;20769;-68
2021/03/27 10:27:48;;;;;;;11.00;2.67;;;8.10;64.90;;;;;;5093811;28;20750;-68
2021/03/27 10:30:36;;;;;;;11.83;2.80;;;8.00;66.20;;;;;;5093681;28;20044;-67
2021/03/27 10:33:13;;;;;;;16.53;3.00;;;7.80;67.60;;;;;;5093214;28;20325;-67
2021/03/27 10:35:50;;;;;;;11.37;2.30;;;7.60;68.20;;;;;;5092879;28;20289;-69
2021/03/27 10:38:38;;;;;;;12.93;2.43;;;7.50;68.80;;;;;;5093671;28;20295;-68
2021/03/27 10:41:23;;;;;;;11.17;2.43;;;7.40;68.80;;;;;;5093249;28;20334;-67
2021/03/27 10:44:02;;;;;;;11.63;2.47;;;7.30;68.70;;;;;;5092097;28;20455;-68
2021/03/27 10:46:34;;;;;;;14.57;2.53;;;7.20;69.30;;;;;;5093646;28;20318;-68
2021/03/27 10:49:21;;;;;;;11.90;2.65;;;7.20;69.10;;;;;;5092586;28;20289;-68
2021/03/27 10:52:24;;;;;;;8.13;2.20;;;7.20;69.70;;;;;;5092712;28;20052;-68
2021/03/27 10:55:18;;;;;;;10.30;2.33;;;7.30;69.40;;;;;;5092839;28;20294;-68
2021/03/27 10:58:26;;;;;;;9.60;2.30;;;7.40;69.10;;;;;;5092375;28;20701;-68
2021/03/27 11:01:18;;;;;;;13.43;2.20;;;7.50;68.20;;;;;;5071116;28;20709;-68
2021/03/27 11:04:02;;;;;;;15.75;3.00;;;7.70;68.20;;;;;;5091893;28;20298;-68
2021/03/27 11:06:35;;;;;;;9.60;2.50;;;7.90;68.20;;;;;;5092869;28;20040;-68
2021/03/27 11:09:33;;;;;;;17.13;3.47;;;8.30;68.10;;;;;;5092715;28;20397;-67
2021/03/27 11:12:10;;;;;;;15.40;3.50;;;8.70;65.90;;;;;;5092033;28;20313;-68
2021/03/27 11:14:51;;;;;;;13.03;2.87;;;9.10;66.20;;;;;;5092591;28;20294;-67
2021/03/27 11:17:46;;;;;;;9.53;1.73;;;9.40;65.20;;;;;;5092416;28;20309;-67
2021/03/27 11:20:42;;;;;;;10.00;2.27;;;9.30;65.00;;;;;;5092826;28;20302;-69
2021/03/27 11:23:32;;;;;;;17.23;2.93;;;9.00;65.90;;;;;;5091844;28;20850;-68
2021/03/27 11:26:14;;;;;;;11.87;2.63;;;8.70;67.00;;;;;;5091809;28;20301;-68
2021/03/27 11:29:27;;;;;;;12.57;2.97;;;8.60;67.20;;;;;;5092363;28;20309;-68
2021/03/27 11:32:01;;;;;;;13.90;3.07;;;8.60;67.40;;;;;;5091174;28;20493;-67
2021/03/27 11:34:52;;;;;;;13.20;2.70;;;8.70;68.30;;;;;;5092612;28;20314;-68
2021/03/27 11:37:36;;;;;;;11.03;2.53;;;9.00;67.80;;;;;;5092495;28;20302;-68
2021/03/27 11:40:15;;;;;;;16.50;3.23;;;9.10;67.60;;;;;;5091464;28;20298;-68
2021/03/27 11:43:02;;;;;;;14.70;3.00;;;9.00;67.90;;;;;;5092080;28;20306;-67
2021/03/27 11:45:34;;;;;;;9.30;2.50;;;8.70;67.40;;;;;;5091618;28;20289;-68
2021/03/27 11:48:21;;;;;;;14.83;3.17;;;8.30;69.00;;;;;;5091785;28;20302;-67
2021/03/27 11:51:07;;;;;;;15.50;2.83;;;8.00;70.00;;;;;;5091842;28;20290;-69
2021/03/27 11:53:33;;;;;;;11.57;2.10;;;7.60;71.70;;;;;;5072799;28;20386;-69
2021/03/27 11:56:22;;;;;;;14.40;2.43;;;7.20;72.50;;;;;;5092180;28;20854;-69
2021/03/27 12:02:31;;;;;;;11.23;2.60;;;6.60;75.00;;;;;;5104837;28;20789;-68
2021/03/27 12:05:15;;;;;;;13.00;2.63;;;6.40;75.70;;;;;;5112387;28;20305;-68
2021/03/27 12:08:18;;;;;;;9.43;2.30;;;6.40;76.40;;;;;;5111128;28;20362;-68
2021/03/27 12:11:15;;;;;;;5.40;1.17;;;6.40;76.20;;;;;;5111869;28;20649;-68
2021/03/27 12:13:51;;;;;;;2.93;1.33;;;6.40;73.90;;;;;;5097148;28;20340;-68
2021/03/27 12:16:48;;;;;;;2.47;0.90;;;6.20;74.40;;;;;;5112278;28;20301;-68
2021/03/27 12:19:22;;;;;;;4.93;1.30;;;6.10;75.90;;;;;;5104669;28;20293;-68
2021/03/27 12:22:16;;;;;;;2.80;1.17;;;5.80;76.50;;;;;;5111028;28;20296;-69
2021/03/27 12:24:53;;;;;;;3.00;1.63;;;5.50;77.70;;;;;;5111624;28;20682;-68
2021/03/27 12:27:38;;;;;;;3.43;0.77;;;5.20;78.60;;;;;;5111361;28;20298;-68
2021/03/27 12:30:32;;;;;;;2.60;1.00;;;5.10;79.50;;;;;;5111762;28;20293;-68
2021/03/27 12:33:14;;;;;;;1.20;1.00;;;5.00;80.40;;;;;;5111177;28;20821;-68
2021/03/27 12:36:02;;;;;;;3.90;1.08;;;5.00;80.30;;;;;;5110898;28;20293;-69
2021/03/27 12:38:58;;;;;;;5.33;1.63;;;5.00;81.20;;;;;;5111729;28;20511;-68
2021/03/27 12:41:29;;;;;;;5.47;1.50;;;5.10;81.70;;;;;;5111187;28;20720;-68
2021/03/27 12:44:00;;;;;;;8.80;1.47;;;5.20;81.20;;;;;;5111017;28;20298;-68
2021/03/27 12:46:40;;;;;;;4.30;1.77;;;5.30;80.80;;;;;;5111694;28;20657;-67
2021/03/27 12:49:41;;;;;;;4.43;1.60;;;5.40;81.30;;;;;;5111001;28;20058;-67
2021/03/27 12:52:31;;;;;;;9.30;1.77;;;5.60;82.40;;;;;;5111547;28;20293;-67
2021/03/27 12:55:06;;;;;;;5.03;1.33;;;6.00;82.80;;;;;;5111433;28;20293;-68
2021/03/27 12:58:03;;;;;;;7.53;1.87;;;6.30;80.50;;;;;;5110598;28;20655;-67
2021/03/27 13:00:51;;;;;;;7.77;1.50;;;6.40;80.80;;;;;;5111715;28;20354;-68
2021/03/27 13:03:40;;;;;;;8.63;2.13;;;6.50;80.30;;;;;;5110532;28;20801;-68
2021/03/27 13:06:24;;;;;;;8.03;2.50;;;6.50;80.10;;;;;;5111264;28;20293;-67
2021/03/27 13:09:11;;;;;;;6.73;1.93;;;6.60;80.20;;;;;;5111002;28;20325;-66
2021/03/27 13:11:48;;;;;;;7.10;2.27;;;6.80;80.80;;;;;;5110783;28;20289;-67
2021/03/27 13:14:50;;;;;;;9.43;2.40;;;6.90;80.10;;;;;;5111613;28;20393;-67
2021/03/27 13:17:23;;;;;;;11.93;3.17;;;7.00;81.20;;;;;;5110803;28;20301;-67
2021/03/27 13:19:56;;;;;;;13.87;2.90;;;7.20;80.90;;;;;;5110604;28;20096;-68
2021/03/27 13:22:28;;;;;;;16.83;2.90;;;7.50;81.00;;;;;;5111587;28;20311;-68
2021/03/27 13:25:00;;;;;;;14.00;3.00;;;7.90;80.40;;;;;;5110299;28;20384;-68
2021/03/27 13:27:54;;;;;;;15.00;2.72;;;8.20;80.00;;;;;;5115453;28;20332;-68
2021/03/27 13:30:36;;;;;;;17.17;3.70;;;8.40;79.20;;;;;;5115124;28;20055;-68
2021/03/27 13:33:13;;;;;;;13.80;2.63;;;8.50;79.00;;;;;;5114932;28;20317;-68
2021/03/27 13:35:51;;;;;;;14.83;3.00;;;8.70;78.20;;;;;;5115100;28;20039;-68
2021/03/27 13:38:23;;;;;;;12.27;3.40;;;8.90;77.40;;;;;;5114312;28;20298;-68
2021/03/27 13:40:52;;;;;;;13.77;3.80;;;9.10;77.00;;;;;;5114785;28;20321;-68
2021/03/27 13:43:47;;;;;;;15.40;3.63;;;9.30;77.30;;;;;;5114849;28;20305;-69
2021/03/27 13:46:23;;;;;;;10.97;2.73;;;9.70;75.30;;;;;;5114087;28;20305;-68
2021/03/27 13:49:06;;;;;;;12.03;2.83;;;9.90;73.80;;;;;;5114262;28;20301;-68
2021/03/27 13:52:04;;;;;;;10.63;2.50;;;9.90;72.40;;;;;;5114920;28;20294;-67
2021/03/27 13:54:29;;;;;;;12.83;2.80;;;9.70;70.30;;;;;;5114177;28;20402;-67
2021/03/27 13:57:16;;;;;;;9.77;2.73;;;9.40;70.50;;;;;;5113978;28;20320;-66
2021/03/27 14:00:00;;;;;;;9.37;2.00;;;9.10;70.20;;;;;;5114016;28;20131;-66
2021/03/27 14:02:54;;;;;;;12.60;2.53;;;8.60;72.70;;;;;;5114610;28;20312;-66
2021/03/27 14:05:25;;;;;;;10.07;2.93;;;8.10;75.10;;;;;;5114450;28;20304;-66
2021/03/27 14:08:14;;;;;;;10.27;2.55;;;7.90;76.50;;;;;;5112995;28;20321;-66
2021/03/27 14:10:58;;;;;;;5.20;1.73;;;7.70;76.00;;;;;;5064423;28;20047;-66
2021/03/27 14:13:39;;;;;;;7.47;2.07;;;7.60;76.20;;;;;;5113469;28;20314;-67
2021/03/27 14:16:12;;;;;;;7.40;1.55;;;7.50;75.60;;;;;;5113935;28;20732;-67
2021/03/27 14:18:37;;;;;;;3.87;1.23;;;7.50;75.50;;;;;;5114269;28;20052;-68
2021/03/27 14:21:25;;;;;;;4.67;1.00;;;7.50;75.30;;;;;;5113468;28;20696;-68
2021/03/27 14:24:06;;;;;;;3.83;1.10;;;7.60;75.00;;;;;;5114002;28;20538;-68
2021/03/27 14:27:04;;;;;;;3.50;1.00;;;7.70;74.20;;;;;;5114209;28;20325;-68